Time;durP1;ratioP1;P1;durP2;ratioP2;P2;SDS_P1;SDS_P2;PMS_P1;PMS_P2;Temp;Humidity;BMP_temperature;BMP_pressure;BME280_temperature;BME280_humidity;BME280_pressure;Samples;Min_cycle;Max_cycle;Signal;HPM_P1;HPM_P2
2022/08/09 00:01:36;;;;;;;8.35;6.82;;;;;;;14.54;100.00;102627.19;6514109;22;19996;-82
2022/08/09 00:04:08;;;;;;;8.13;7.45;;;;;;;14.44;100.00;102635.13;6514145;22;20003;-83
2022/08/09 00:06:39;;;;;;;9.38;8.05;;;;;;;14.62;100.00;102627.47;6514239;22;19997;-83
2022/08/09 00:09:11;;;;;;;10.07;7.53;;;;;;;14.59;100.00;102624.19;6541857;22;19996;-82
2022/08/09 00:11:44;;;;;;;8.35;7.22;;;;;;;14.58;100.00;102620.63;6541022;22;19996;-82
2022/08/09 00:14:17;;;;;;;9.15;6.72;;;;;;;14.53;100.00;102622.78;6513980;22;20022;-82
2022/08/09 00:16:48;;;;;;;10.40;7.22;;;;;;;14.54;100.00;102625.34;6541569;22;20088;-82
2022/08/09 00:19:20;;;;;;;12.25;7.18;;;;;;;14.44;100.00;102619.03;6513560;22;20004;-82
2022/08/09 00:21:51;;;;;;;8.68;7.25;;;;;;;14.49;100.00;102615.97;6513043;22;20012;-83
2022/08/09 00:24:26;;;;;;;11.30;6.68;;;;;;;14.58;100.00;102620.63;6514482;22;20047;-82
2022/08/09 00:27:01;;;;;;;8.52;6.50;;;;;;;14.60;100.00;102613.28;6541360;22;19997;-82
2022/08/09 00:29:32;;;;;;;8.23;7.28;;;;;;;14.54;100.00;102614.63;6514263;22;20000;-83
2022/08/09 00:32:04;;;;;;;9.48;7.10;;;;;;;14.56;100.00;102620.72;6541388;22;20435;-82
2022/08/09 00:34:35;;;;;;;8.25;7.13;;;;;;;14.49;100.00;102621.34;6542170;22;20509;-82
2022/08/09 00:37:06;;;;;;;7.28;6.47;;;;;;;14.42;100.00;102609.41;6513607;22;19996;-81
2022/08/09 00:39:38;;;;;;;7.95;6.40;;;;;;;14.51;100.00;102619.38;6513748;22;19996;-80
2022/08/09 00:42:09;;;;;;;6.97;6.30;;;;;;;14.45;100.00;102610.00;6540985;22;19999;-80
2022/08/09 00:44:40;;;;;;;7.40;6.70;;;;;;;14.30;100.00;102616.63;6541440;22;20015;-80
2022/08/09 00:47:12;;;;;;;8.85;6.57;;;;;;;14.44;100.00;102618.19;6540960;22;20004;-80
2022/08/09 00:49:43;;;;;;;11.32;6.15;;;;;;;14.29;100.00;102620.28;6541293;22;20429;-80
2022/08/09 00:52:14;;;;;;;7.93;6.95;;;;;;;14.34;100.00;102616.25;6540871;22;20079;-80
2022/08/09 00:54:50;;;;;;;7.45;6.82;;;;;;;14.47;100.00;102624.16;6541607;22;20000;-80
2022/08/09 00:57:21;;;;;;;8.65;6.07;;;;;;;14.41;100.00;102618.41;6513198;22;20000;-80
2022/08/09 00:59:53;;;;;;;6.80;6.07;;;;;;;14.41;100.00;102621.97;6513931;22;20074;-80
2022/08/09 01:02:28;;;;;;;6.13;5.53;;;;;;;14.31;100.00;102623.69;6539866;22;20068;-80
2022/08/09 01:05:08;;;;;;;10.05;6.63;;;;;;;14.29;100.00;102620.28;6513323;22;20517;-79
2022/08/09 01:07:52;;;;;;;9.98;7.18;;;;;;;14.30;100.00;102619.28;6538998;22;20319;-80
2022/08/09 01:10:47;;;;;;;8.48;6.15;;;;;;;14.36;100.00;102618.81;6540894;22;20000;-80
2022/08/09 01:13:29;;;;;;;7.85;6.30;;;;;;;14.16;100.00;102609.66;6540772;22;20004;-79
2022/08/09 01:16:03;;;;;;;6.85;5.90;;;;;;;14.13;100.00;102618.81;6540608;22;19996;-79
2022/08/09 01:18:36;;;;;;;7.10;5.93;;;;;;;14.09;100.00;102619.19;6513350;22;20068;-80
2022/08/09 01:21:35;;;;;;;6.40;5.75;;;;;;;14.11;100.00;102615.41;6540969;22;20040;-80
2022/08/09 01:24:25;;;;;;;7.93;6.50;;;;;;;13.93;100.00;102622.22;6513297;22;20001;-80
2022/08/09 01:27:10;;;;;;;6.78;6.05;;;;;;;13.84;100.00;102622.97;6514054;22;20031;-80
2022/08/09 01:29:59;;;;;;;6.50;5.90;;;;;;;13.86;100.00;102621.84;6539993;22;19996;-80
2022/08/09 01:32:35;;;;;;;7.53;6.07;;;;;;;13.90;100.00;102623.34;6540527;22;20000;-80
2022/08/09 01:35:14;;;;;;;8.07;6.47;;;;;;;13.82;100.00;102619.56;6513521;22;20371;-80
2022/08/09 01:37:48;;;;;;;8.60;6.53;;;;;;;13.86;100.00;102618.31;6513068;22;20043;-80
2022/08/09 01:40:23;;;;;;;7.75;6.53;;;;;;;13.69;100.00;102615.16;6512779;22;20047;-81
2022/08/09 01:42:55;;;;;;;7.30;6.60;;;;;;;13.50;100.00;102621.09;6513937;22;20042;-82
2022/08/09 01:45:28;;;;;;;7.70;6.88;;;;;;;13.72;100.00;102612.22;6513173;22;20012;-82
2022/08/09 01:48:01;;;;;;;7.13;5.63;;;;;;;13.69;100.00;102615.16;6540630;22;20434;-81
2022/08/09 01:50:34;;;;;;;8.35;6.38;;;;;;;13.52;100.00;102612.94;6513843;22;20347;-81
2022/08/09 01:53:07;;;;;;;9.32;7.47;;;;;;;13.47;100.00;102618.63;6514210;22;20394;-82
2022/08/09 01:55:39;;;;;;;8.57;7.18;;;;;;;13.42;100.00;102620.81;6513175;22;20000;-82
2022/08/09 01:58:12;;;;;;;10.10;7.47;;;;;;;13.35;100.00;102619.56;6541040;22;19996;-83
2022/08/09 02:00:45;;;;;;;10.65;8.00;;;;;;;13.38;100.00;102620.19;6513620;22;19996;-83
2022/08/09 02:03:18;;;;;;;9.27;7.70;;;;;;;13.39;100.00;102621.03;6514215;22;20004;-83
2022/08/09 02:05:53;;;;;;;9.27;8.20;;;;;;;13.33;100.00;102618.84;6514286;22;19996;-83
2022/08/09 02:08:26;;;;;;;10.75;8.20;;;;;;;13.30;100.00;102627.94;6513392;22;20007;-83
2022/08/09 02:11:01;;;;;;;8.90;8.00;;;;;;;13.29;100.00;102634.28;6541040;22;20003;-83
2022/08/09 02:13:33;;;;;;;8.57;7.75;;;;;;;13.31;100.00;102624.31;6540925;22;20016;-83
2022/08/09 02:16:08;;;;;;;11.45;8.77;;;;;;;13.34;100.00;102625.91;6543193;22;19996;-83
2022/08/09 02:18:41;;;;;;;10.93;8.13;;;;;;;13.26;100.00;102636.34;6514174;22;19992;-83
2022/08/09 02:21:18;;;;;;;7.57;6.97;;;;;;;13.24;100.00;102631.94;6515035;22;20370;-83
2022/08/09 02:23:54;;;;;;;12.00;7.38;;;;;;;13.22;100.00;102623.16;6515272;22;20012;-83
2022/08/09 02:26:32;;;;;;;10.57;7.40;;;;;;;13.32;100.00;102631.38;6542363;22;20418;-83
2022/08/09 02:29:19;;;;;;;11.50;7.55;;;;;;;13.36;100.00;102630.19;6514625;22;20000;-83
2022/08/09 02:31:56;;;;;;;11.85;7.72;;;;;;;13.29;100.00;102623.56;6514326;22;20093;-82
2022/08/09 02:34:32;;;;;;;8.23;7.43;;;;;;;13.33;100.00;102625.06;6541242;22;20026;-81
2022/08/09 02:37:08;;;;;;;7.97;6.70;;;;;;;13.25;100.00;102624.72;6542229;22;19996;-81
2022/08/09 02:39:57;;;;;;;9.18;7.80;;;;;;;13.22;100.00;102625.84;6513146;22;19996;-82
2022/08/09 02:42:39;;;;;;;8.77;7.53;;;;;;;13.29;100.00;102623.56;6541002;22;19996;-81
2022/08/09 02:45:21;;;;;;;15.13;7.80;;;;;;;13.30;100.00;102613.69;6513976;22;20012;-80
2022/08/09 02:47:55;;;;;;;9.98;7.93;;;;;;;13.43;100.00;102623.38;6514246;22;20027;-81
2022/08/09 02:50:33;;;;;;;10.15;7.85;;;;;;;13.34;100.00;102625.91;6514323;22;20023;-82
2022/08/09 02:53:25;;;;;;;8.40;6.97;;;;;;;13.37;100.00;102617.63;6514383;22;20371;-81
2022/08/09 02:55:58;;;;;;;8.63;7.47;;;;;;;13.31;100.00;102613.59;6541529;22;19996;-80
2022/08/09 02:58:32;;;;;;;10.70;8.68;;;;;;;13.20;100.00;102617.06;6513645;22;20003;-80
2022/08/09 03:01:06;;;;;;;10.07;8.13;;;;;;;13.31;100.00;102620.75;6514161;22;20004;-81
2022/08/09 03:03:39;;;;;;;9.00;8.10;;;;;;;13.35;100.00;102619.56;6540690;22;20004;-80
2022/08/09 03:06:13;;;;;;;9.88;8.98;;;;;;;13.35;100.00;102625.78;6540574;22;20002;-80
2022/08/09 03:08:47;;;;;;;10.00;8.25;;;;;;;13.23;100.00;102624.84;6514360;22;19999;-80
2022/08/09 03:11:20;;;;;;;10.15;7.57;;;;;;;13.34;100.00;102623.22;6512967;22;20047;-81
2022/08/09 03:13:53;;;;;;;10.93;8.45;;;;;;;13.21;100.00;102628.63;6513827;22;20717;-78
2022/08/09 03:16:25;;;;;;;9.75;8.38;;;;;;;13.24;100.00;102628.41;6511167;22;20465;-80
2022/08/09 03:18:58;;;;;;;10.95;8.25;;;;;;;13.14;100.00;102635.44;6512521;22;20075;-81
2022/08/09 03:21:34;;;;;;;12.63;8.88;;;;;;;13.14;100.00;102614.84;6517610;22;20007;-79
2022/08/09 03:24:06;;;;;;;13.40;8.15;;;;;;;13.20;100.00;102622.44;6490169;22;20032;-80
2022/08/09 03:26:38;;;;;;;11.98;9.52;;;;;;;13.17;100.00;102611.09;6539909;22;19992;-81
2022/08/09 03:29:12;;;;;;;9.30;8.32;;;;;;;13.30;100.00;102619.03;6540493;22;20074;-80
2022/08/09 03:31:44;;;;;;;8.85;7.68;;;;;;;13.18;100.00;102613.66;6541366;22;20119;-81
2022/08/09 03:34:15;;;;;;;10.57;8.57;;;;;;;13.32;100.00;102617.97;6538937;22;20010;-81
2022/08/09 03:36:47;;;;;;;9.15;8.18;;;;;;;13.17;100.00;102617.28;6538863;22;20000;-81
2022/08/09 03:39:19;;;;;;;9.07;8.20;;;;;;;13.11;100.00;102622.25;6513304;22;20077;-80
2022/08/09 03:41:50;;;;;;;10.18;8.48;;;;;;;13.00;100.00;102628.41;6537394;22;20076;-81
2022/08/09 03:44:23;;;;;;;9.98;8.98;;;;;;;13.06;100.00;102633.34;6539751;22;20539;-82
2022/08/09 03:46:55;;;;;;;12.52;8.30;;;;;;;13.05;100.00;102627.09;6512488;22;20079;-81
2022/08/09 03:49:28;;;;;;;11.63;9.70;;;;;;;13.07;100.00;102632.34;6511885;22;20087;-82
2022/08/09 03:52:00;;;;;;;11.65;8.63;;;;;;;13.18;100.00;102634.22;6514489;22;20000;-81
2022/08/09 03:54:36;;;;;;;10.10;7.82;;;;;;;13.04;100.00;102630.78;6514723;22;20000;-82
2022/08/09 03:57:10;;;;;;;10.07;9.00;;;;;;;13.00;100.00;102626.59;6515034;22;20370;-81
2022/08/09 03:59:42;;;;;;;12.30;9.43;;;;;;;12.97;100.00;102634.88;6542921;22;20832;-83
2022/08/09 04:02:13;;;;;;;10.07;9.00;;;;;;;12.91;100.00;102635.31;6515481;22;20347;-83
2022/08/09 04:04:45;;;;;;;11.45;9.55;;;;;;;12.97;100.00;102636.69;6515071;22;20431;-83
2022/08/09 04:07:16;;;;;;;10.48;9.30;;;;;;;12.77;100.00;102628.31;6542388;22;20004;-83
2022/08/09 04:09:48;;;;;;;10.15;9.15;;;;;;;12.91;100.00;102619.25;6541592;22;20074;-83
2022/08/09 04:12:40;;;;;;;14.02;10.45;;;;;;;12.92;100.00;102626.34;6514704;22;20414;-82
2022/08/09 04:15:13;;;;;;;11.32;10.20;;;;;;;12.98;100.00;102623.19;6541506;22;20041;-82
2022/08/09 04:17:45;;;;;;;14.38;10.25;;;;;;;12.83;100.00;102627.88;6515077;22;20032;-82
2022/08/09 04:20:17;;;;;;;10.88;9.05;;;;;;;12.78;100.00;102616.63;6514112;22;20047;-81
2022/08/09 04:22:48;;;;;;;12.35;9.02;;;;;;;12.86;100.00;102629.44;6541804;22;20073;-81
2022/08/09 04:25:19;;;;;;;11.90;10.13;;;;;;;12.85;100.00;102627.75;6515181;22;20006;-82
2022/08/09 04:27:51;;;;;;;11.98;10.13;;;;;;;12.73;100.00;102629.50;6514484;22;20427;-82
2022/08/09 04:30:22;;;;;;;13.57;10.25;;;;;;;12.79;100.00;102634.41;6515058;22;20134;-81
2022/08/09 04:32:54;;;;;;;12.80;9.98;;;;;;;12.75;100.00;102638.28;6541734;22;20008;-81
2022/08/09 04:35:25;;;;;;;12.40;10.70;;;;;;;12.71;100.00;102649.31;6541385;22;20004;-82
2022/08/09 04:37:56;;;;;;;11.90;8.95;;;;;;;12.79;100.00;102645.09;6514423;22;20004;-81
2022/08/09 04:40:47;;;;;;;15.27;11.15;;;;;;;12.83;100.00;102646.63;6515161;22;20039;-82
2022/08/09 04:43:18;;;;;;;13.35;10.20;;;;;;;12.77;100.00;102649.72;6541835;22;20450;-82
2022/08/09 04:45:49;;;;;;;10.57;9.30;;;;;;;13.04;100.00;102648.63;6515240;22;19992;-82
2022/08/09 04:48:21;;;;;;;13.48;10.35;;;;;;;12.93;100.00;102651.28;6514815;22;20439;-82
2022/08/09 04:50:52;;;;;;;13.65;11.05;;;;;;;13.03;100.00;102657.66;6517444;22;20058;-82
2022/08/09 04:53:24;;;;;;;11.40;9.70;;;;;;;13.05;100.00;102659.25;6516451;22;20015;-82
2022/08/09 04:55:55;;;;;;;15.55;11.27;;;;;;;13.13;100.00;102655.13;6517030;22;20144;-82
2022/08/09 04:58:27;;;;;;;15.50;11.50;;;;;;;13.23;100.00;102662.38;6544393;22;19992;-82
2022/08/09 05:01:00;;;;;;;12.93;11.48;;;;;;;12.98;100.00;102662.50;6517416;22;20005;-83
2022/08/09 05:03:32;;;;;;;15.93;11.30;;;;;;;13.03;100.00;102663.88;6519417;22;20334;-82
2022/08/09 05:06:05;;;;;;;12.85;11.30;;;;;;;13.04;100.00;102670.06;6518519;22;19996;-83
2022/08/09 05:08:37;;;;;;;14.90;11.30;;;;;;;13.01;100.00;102647.06;6544457;22;20043;-84
2022/08/09 05:11:09;;;;;;;13.45;10.13;;;;;;;13.15;100.00;102664.78;6542892;22;20319;-83
2022/08/09 05:13:41;;;;;;;14.68;9.95;;;;;;;13.34;100.00;102677.69;6542461;22;20126;-82
2022/08/09 05:16:13;;;;;;;11.98;9.60;;;;;;;13.24;100.00;102652.53;6515063;22;19996;-82
2022/08/09 05:18:45;;;;;;;14.75;11.15;;;;;;;13.28;100.00;102658.50;6516262;22;19992;-82
2022/08/09 05:21:16;;;;;;;15.30;11.75;;;;;;;13.56;100.00;102682.25;6542108;22;20303;-83
2022/08/09 05:23:48;;;;;;;11.05;9.90;;;;;;;13.66;100.00;102674.38;6514422;22;20027;-82
2022/08/09 05:26:20;;;;;;;13.40;11.52;;;;;;;13.77;100.00;102658.28;6514954;22;20119;-82
2022/08/09 05:28:51;;;;;;;12.45;11.15;;;;;;;13.81;100.00;102645.50;6543463;22;20004;-82
2022/08/09 05:31:23;;;;;;;13.77;10.65;;;;;;;14.22;100.00;102672.72;6515291;22;20373;-82
2022/08/09 05:33:54;;;;;;;13.10;11.73;;;;;;;14.33;100.00;102660.16;6515220;22;20014;-82
2022/08/09 05:36:26;;;;;;;12.32;10.85;;;;;;;14.64;100.00;102671.16;6514486;22;20453;-82
2022/08/09 05:38:57;;;;;;;12.75;10.45;;;;;;;14.92;100.00;102674.28;6542530;22;20005;-82
2022/08/09 05:41:29;;;;;;;13.07;9.52;;;;;;;15.06;100.00;102647.09;6514374;22;20028;-82
2022/08/09 05:44:00;;;;;;;11.68;9.27;;;;;;;15.27;100.00;102679.41;6514617;22;20409;-82
2022/08/09 05:46:32;;;;;;;11.07;9.55;;;;;;;15.52;100.00;102687.25;6514702;22;20000;-82
2022/08/09 05:49:03;;;;;;;9.77;8.77;;;;;;;15.61;100.00;102681.91;6542314;22;19992;-82
2022/08/09 05:51:35;;;;;;;9.85;8.48;;;;;;;15.97;100.00;102684.28;6518378;22;20003;-82
2022/08/09 05:54:06;;;;;;;9.57;8.60;;;;;;;16.00;100.00;102659.81;6539500;22;20008;-81
2022/08/09 05:56:38;;;;;;;10.77;8.38;;;;;;;16.36;100.00;102671.88;6541172;22;19988;-82
2022/08/09 05:59:09;;;;;;;11.05;7.63;;;;;;;16.66;100.00;102675.50;6566590;22;20023;-81
2022/08/09 06:01:41;;;;;;;9.20;7.80;;;;;;;16.70;100.00;102658.06;6566015;22;20035;-82
2022/08/09 06:04:12;;;;;;;10.85;7.07;;;;;;;17.09;100.00;102678.88;6526035;22;20027;-82
2022/08/09 06:06:44;;;;;;;8.02;7.22;;;;;;;17.26;100.00;102686.25;6543701;22;20099;-82
2022/08/09 06:09:19;;;;;;;9.13;7.45;;;;;;;17.37;100.00;102682.56;6519275;22;20079;-82
2022/08/09 06:11:50;;;;;;;8.38;6.47;;;;;;;17.67;100.00;102677.97;6545368;22;19992;-82
2022/08/09 06:14:22;;;;;;;13.05;8.18;;;;;;;17.89;100.00;102672.28;6517865;22;20442;-82
2022/08/09 06:16:54;;;;;;;9.35;7.35;;;;;;;18.30;100.00;102682.78;6541903;22;20027;-83
2022/08/09 06:19:25;;;;;;;8.88;6.03;;;;;;;18.54;100.00;102684.13;6514204;22;20423;-80
2022/08/09 06:21:57;;;;;;;9.25;7.57;;;;;;;18.69;100.00;102682.63;6514474;22;20015;-81
2022/08/09 06:24:29;;;;;;;7.70;6.90;;;;;;;18.99;100.00;102688.72;6541056;22;19992;-82
2022/08/09 06:27:00;;;;;;;8.30;7.05;;;;;;;19.12;100.00;102681.06;6541087;22;20002;-81
2022/08/09 06:29:32;;;;;;;8.05;6.80;;;;;;;19.51;100.00;102672.59;6541364;22;19997;-82
2022/08/09 06:32:04;;;;;;;7.40;6.70;;;;;;;19.74;100.00;102669.41;6541112;22;20047;-82
2022/08/09 06:34:35;;;;;;;8.60;6.85;;;;;;;20.09;100.00;102681.13;6540661;22;20374;-82
2022/08/09 06:37:07;;;;;;;9.85;7.15;;;;;;;19.95;100.00;102679.84;6541275;22;20032;-82
2022/08/09 06:39:38;;;;;;;8.45;6.35;;;;;;;20.34;100.00;102680.25;6541032;22;20055;-81
2022/08/09 06:42:10;;;;;;;9.90;6.55;;;;;;;21.04;100.00;102684.56;6514781;22;19992;-82
2022/08/09 06:44:41;;;;;;;8.50;5.78;;;;;;;20.93;100.00;102684.84;6540158;22;20008;-81
2022/08/09 06:47:13;;;;;;;8.68;6.55;;;;;;;20.98;100.00;102670.81;6540838;22;19992;-82
2022/08/09 06:49:44;;;;;;;9.32;6.38;;;;;;;21.42;100.00;102687.63;6514107;22;20062;-81
2022/08/09 06:52:16;;;;;;;10.95;6.60;;;;;;;21.33;100.00;102675.06;6540725;22;20378;-81
2022/08/09 06:54:47;;;;;;;7.15;6.15;;;;;;;21.82;100.00;102674.22;6540474;22;19996;-81
2022/08/09 06:57:19;;;;;;;8.65;5.95;;;;;;;22.27;100.00;102694.50;6540914;22;20043;-81
2022/08/09 06:59:51;;;;;;;7.22;5.13;;;;;;;22.44;100.00;102695.25;6542458;22;20301;-81
2022/08/09 07:02:22;;;;;;;8.30;6.00;;;;;;;22.35;100.00;102682.75;6515639;22;19993;-81
2022/08/09 07:04:54;;;;;;;9.35;6.22;;;;;;;23.04;100.00;102696.50;6543752;22;20074;-81
2022/08/09 07:07:26;;;;;;;9.57;5.95;;;;;;;23.38;100.00;102700.69;6516401;22;19992;-81
2022/08/09 07:09:57;;;;;;;6.30;5.70;;;;;;;23.34;100.00;102674.84;6515891;22;20067;-81
2022/08/09 07:12:29;;;;;;;9.07;5.78;;;;;;;23.57;100.00;102692.00;6543124;22;20004;-81
2022/08/09 07:15:02;;;;;;;6.28;5.45;;;;;;;24.09;100.00;102701.22;6543448;22;20327;-81
2022/08/09 07:17:33;;;;;;;6.75;6.03;;;;;;;24.06;100.00;102695.28;6542588;22;19996;-81
2022/08/09 07:20:05;;;;;;;7.93;5.30;;;;;;;24.58;100.00;102701.66;6515507;22;20062;-81
2022/08/09 07:22:40;;;;;;;6.80;5.95;;;;;;;24.85;100.00;102694.66;6542821;22;20004;-80
2022/08/09 07:25:11;;;;;;;9.15;5.50;;;;;;;24.84;100.00;102687.47;6514808;22;19992;-81
2022/08/09 07:27:43;;;;;;;5.75;4.97;;;;;;;25.53;100.00;102691.56;6515280;22;20000;-81
2022/08/09 07:30:15;;;;;;;6.50;5.20;;;;;;;25.93;100.00;102686.34;6515203;22;19996;-82
2022/08/09 07:32:49;;;;;;;6.82;5.32;;;;;;;25.82;100.00;102680.44;6541800;22;20004;-81
2022/08/09 07:35:20;;;;;;;5.25;4.60;;;;;;;26.20;100.00;102698.34;6514942;22;20012;-81
2022/08/09 07:37:52;;;;;;;6.68;5.10;;;;;;;26.94;100.00;102700.31;6515219;22;20054;-81
2022/08/09 07:40:24;;;;;;;6.53;5.63;;;;;;;26.79;100.00;102705.97;6514892;22;20075;-82
2022/08/09 07:42:58;;;;;;;7.30;5.38;;;;;;;27.53;100.00;102697.88;6542275;22;20457;-82
2022/08/09 07:45:30;;;;;;;5.25;4.75;;;;;;;28.05;100.00;102706.25;6514536;22;20066;-81
2022/08/09 07:48:02;;;;;;;7.78;5.30;;;;;;;28.08;100.00;102705.84;6515201;22;20040;-81
2022/08/09 07:50:39;;;;;;;8.40;5.10;;;;;;;28.17;100.00;102707.28;6514705;22;20003;-81
2022/08/09 07:53:10;;;;;;;7.47;4.93;;;;;;;28.16;100.00;102702.88;6541968;22;20008;-82
2022/08/09 07:55:43;;;;;;;8.00;5.25;;;;;;;28.93;100.00;102705.72;6514762;22;20004;-81
2022/08/09 07:58:14;;;;;;;8.88;4.97;;;;;;;28.97;100.00;102715.19;6514762;22;20616;-81
2022/08/09 08:00:46;;;;;;;7.05;5.15;;;;;;;29.11;100.00;102693.97;6515037;22;20040;-81
2022/08/09 08:03:17;;;;;;;6.15;4.60;;;;;;;29.37;100.00;102698.44;6542237;22;20060;-81
2022/08/09 08:05:49;;;;;;;7.18;4.93;;;;;;;29.93;96.04;102707.69;6515354;22;20027;-81
2022/08/09 08:08:21;;;;;;;5.22;4.38;;;;;;;29.92;93.27;102719.75;6541404;22;19992;-81
2022/08/09 08:10:52;;;;;;;7.75;4.82;;;;;;;30.45;90.27;102715.59;6514592;22;20378;-81
2022/08/09 08:13:24;;;;;;;6.45;5.53;;;;;;;29.94;91.01;102703.00;6541717;22;20327;-81
2022/08/09 08:15:55;;;;;;;7.40;4.95;;;;;;;30.14;89.99;102711.06;6515156;22;20027;-81
2022/08/09 08:18:27;;;;;;;7.43;3.92;;;;;;;30.84;89.65;102710.59;6541582;22;20066;-81
2022/08/09 08:20:58;;;;;;;9.30;4.97;;;;;;;30.89;85.54;102710.75;6542353;22;19992;-81
2022/08/09 08:23:30;;;;;;;7.65;4.47;;;;;;;31.48;75.92;102707.28;6514519;22;20003;-81
2022/08/09 08:26:01;;;;;;;7.75;4.20;;;;;;;31.25;76.58;102708.94;6514718;22;20145;-81
2022/08/09 08:28:33;;;;;;;7.95;4.15;;;;;;;31.62;72.80;102694.97;6541627;22;19999;-81
2022/08/09 08:31:05;;;;;;;7.65;4.55;;;;;;;32.01;69.82;102709.13;6515252;22;20000;-81
2022/08/09 08:33:36;;;;;;;8.43;4.25;;;;;;;32.09;66.82;102696.06;6541398;22;20453;-81
2022/08/09 08:36:08;;;;;;;7.78;4.43;;;;;;;32.53;63.60;102697.22;6515580;22;19997;-81
2022/08/09 08:38:39;;;;;;;6.43;4.15;;;;;;;32.71;62.72;102714.72;6515428;22;19996;-81
2022/08/09 08:41:11;;;;;;;4.93;3.42;;;;;;;33.68;59.69;102710.03;6543226;22;20414;-82
2022/08/09 08:43:43;;;;;;;6.25;3.20;;;;;;;33.46;51.32;102702.50;6541333;22;20027;-80
2022/08/09 08:46:18;;;;;;;4.43;2.78;;;;;;;34.06;48.58;102702.81;6516405;22;20326;-81
2022/08/09 08:48:50;;;;;;;4.10;3.30;;;;;;;33.64;48.63;102706.91;6516198;22;20438;-81
2022/08/09 08:51:22;;;;;;;6.53;2.70;;;;;;;34.21;46.36;102703.06;6545840;22;19996;-81
2022/08/09 08:53:53;;;;;;;7.43;2.63;;;;;;;34.83;43.24;102701.81;6548160;22;20008;-80
2022/08/09 08:56:25;;;;;;;4.68;3.08;;;;;;;34.80;43.49;102695.97;6521958;22;20016;-81
2022/08/09 08:58:56;;;;;;;5.22;2.63;;;;;;;35.20;41.87;102701.09;6547067;22;20039;-81
2022/08/09 09:01:28;;;;;;;3.97;2.95;;;;;;;35.03;41.01;102697.59;6550574;22;19996;-80
2022/08/09 09:04:01;;;;;;;4.78;2.53;;;;;;;34.58;42.73;102709.84;6521767;22;20047;-82
2022/08/09 09:06:35;;;;;;;7.88;3.00;;;;;;;34.96;42.98;102719.97;6546759;22;19996;-81
2022/08/09 09:09:07;;;;;;;4.25;2.50;;;;;;;36.10;39.50;102719.72;6517042;22;20350;-81
2022/08/09 09:11:40;;;;;;;3.50;2.00;;;;;;;36.22;38.69;102725.09;6520429;22;20035;-81
2022/08/09 09:14:16;;;;;;;4.97;2.40;;;;;;;36.80;37.05;102721.34;6518011;22;20011;-80
2022/08/09 09:16:48;;;;;;;7.18;2.35;;;;;;;36.52;36.09;102718.78;6547182;22;20418;-81
2022/08/09 09:19:19;;;;;;;5.78;2.42;;;;;;;36.45;35.67;102729.31;6548194;22;19992;-81
2022/08/09 09:22:13;;;;;;;4.43;1.80;;;;;;;36.93;36.69;102725.56;6551433;22;20051;-81
2022/08/09 09:24:51;;;;;;;4.03;1.88;;;;;;;37.14;33.58;102729.19;6550196;22;20078;-80
2022/08/09 09:27:25;;;;;;;3.00;1.70;;;;;;;37.56;32.62;102726.09;6544426;22;20383;-80
2022/08/09 09:29:56;;;;;;;6.53;1.50;;;;;;;37.60;31.53;102729.16;6543282;22;20663;-80
2022/08/09 09:32:28;;;;;;;4.40;1.50;;;;;;;37.57;30.74;102724.16;6514606;22;20004;-81
2022/08/09 09:35:10;;;;;;;3.13;1.25;;;;;;;39.00;30.01;102727.44;6542184;22;19992;-81
2022/08/09 09:37:44;;;;;;;3.95;1.50;;;;;;;38.40;30.83;102714.44;6514894;22;19996;-80
2022/08/09 09:40:16;;;;;;;2.53;1.17;;;;;;;39.17;29.12;102719.53;6541918;22;20016;-81
2022/08/09 09:42:55;;;;;;;2.87;1.00;;;;;;;38.97;28.09;102714.91;6514514;22;20227;-81
2022/08/09 09:45:26;;;;;;;2.53;1.08;;;;;;;38.34;28.23;102710.88;6514207;22;20263;-81
2022/08/09 09:48:02;;;;;;;4.70;1.20;;;;;;;39.50;27.54;102706.69;6514744;22;20405;-81
2022/08/09 09:50:45;;;;;;;2.67;1.20;;;;;;;39.79;26.95;102716.94;6541471;22;20199;-81
2022/08/09 09:53:24;;;;;;;1.77;0.77;;;;;;;40.13;27.43;102710.41;6540955;22;20008;-81
2022/08/09 09:56:02;;;;;;;4.82;1.30;;;;;;;39.50;28.05;102706.69;6541396;22;20342;-80
2022/08/09 09:58:44;;;;;;;6.07;1.10;;;;;;;40.07;25.99;102711.63;6541517;22;20042;-81
2022/08/09 10:01:21;;;;;;;2.20;0.90;;;;;;;39.21;26.27;102697.44;6541206;22;20442;-81
2022/08/09 10:03:54;;;;;;;4.97;0.90;;;;;;;39.73;25.62;102708.94;6541182;22;20004;-81
2022/08/09 10:06:37;;;;;;;2.47;0.90;;;;;;;40.55;24.76;102717.09;6542253;22;20327;-81
2022/08/09 10:09:11;;;;;;;2.75;0.85;;;;;;;40.55;24.42;102703.13;6541267;22;20015;-81
2022/08/09 10:11:42;;;;;;;1.40;0.63;;;;;;;40.44;23.59;102712.81;6541997;22;20014;-81
2022/08/09 10:14:21;;;;;;;3.03;0.70;;;;;;;41.06;24.27;102711.84;6540743;22;20350;-81
2022/08/09 10:16:53;;;;;;;1.75;0.50;;;;;;;40.14;24.09;102708.47;6541659;22;19996;-81
2022/08/09 10:19:35;;;;;;;1.80;0.73;;;;;;;41.23;22.87;102714.94;6541454;22;20390;-81
2022/08/09 10:22:06;;;;;;;3.38;0.60;;;;;;;40.67;23.13;102708.25;6540675;22;19996;-81
2022/08/09 10:24:39;;;;;;;5.20;0.75;;;;;;;41.04;22.75;102706.56;6540156;22;20411;-81
2022/08/09 10:27:10;;;;;;;1.70;0.90;;;;;;;41.70;22.91;102706.53;6541275;22;20411;-81
2022/08/09 10:29:42;;;;;;;2.47;0.80;;;;;;;42.07;22.55;102699.03;6513837;22;20011;-81
2022/08/09 10:32:14;;;;;;;2.95;0.70;;;;;;;41.90;22.20;102700.50;6540535;22;20035;-81
2022/08/09 10:34:46;;;;;;;1.67;0.50;;;;;;;41.51;20.96;102706.59;6541726;22;20001;-81
2022/08/09 10:37:17;;;;;;;2.53;0.55;;;;;;;41.81;20.98;102693.97;6542411;22;20425;-81
2022/08/09 10:39:49;;;;;;;1.27;0.70;;;;;;;42.66;20.09;102697.13;6542747;22;20003;-81
2022/08/09 10:42:21;;;;;;;3.20;0.70;;;;;;;41.82;20.52;102689.22;6515679;22;20235;-76
2022/08/09 10:45:06;;;;;;;3.08;0.85;;;;;;;42.66;21.06;102685.91;6542043;22;20004;-76
2022/08/09 10:47:59;;;;;;;;;;;;;;;45.25;18.51;102692.00;6543097;22;20430;-80
2022/08/09 10:51:08;;;;;;;1.30;0.50;;;;;;;43.34;20.97;102680.28;6541750;22;19910;-81
2022/08/09 10:53:59;;;;;;;2.20;0.63;;;;;;;44.40;19.43;102675.75;6541942;22;20083;-81
2022/08/09 10:56:36;;;;;;;2.25;0.70;;;;;;;43.75;19.36;102690.34;6541909;22;20091;-81
2022/08/09 10:59:28;;;;;;;1.05;0.38;;;;;;;43.71;19.14;102674.44;6542462;22;19998;-80
2022/08/09 11:01:59;;;;;;;3.53;0.70;;;;;;;43.22;19.23;102672.44;6542378;22;20378;-81
2022/08/09 11:04:31;;;;;;;2.10;0.40;;;;;;;43.73;18.65;102664.56;6542012;22;20038;-80
2022/08/09 11:07:03;;;;;;;3.03;0.57;;;;;;;43.26;18.74;102678.22;6542654;22;19992;-80
2022/08/09 11:09:37;;;;;;;1.90;0.70;;;;;;;43.37;19.37;102675.97;6515113;22;19999;-81
2022/08/09 11:12:11;;;;;;;1.35;0.60;;;;;;;43.66;18.66;102672.63;6515199;22;19996;-81
2022/08/09 11:14:49;;;;;;;3.03;0.60;;;;;;;44.50;18.37;102667.81;6515420;22;20091;-80
2022/08/09 11:17:21;;;;;;;0.90;0.40;;;;;;;43.79;18.11;102666.06;6541798;22;20075;-81
2022/08/09 11:20:00;;;;;;;2.33;0.50;;;;;;;43.75;18.18;102673.50;6541888;22;20023;-80
2022/08/09 11:22:43;;;;;;;1.35;0.50;;;;;;;43.98;18.26;102670.56;6541465;22;20431;-80
2022/08/09 11:25:21;;;;;;;2.42;0.50;;;;;;;44.30;18.31;102674.91;6514994;22;19997;-80
2022/08/09 11:27:55;;;;;;;1.52;0.65;;;;;;;43.60;18.84;102669.16;6542631;22;19996;-80
2022/08/09 11:30:26;;;;;;;2.08;0.65;;;;;;;43.62;18.58;102664.03;6542450;22;20390;-80
2022/08/09 11:33:06;;;;;;;2.00;0.83;;;;;;;44.68;18.75;102665.00;6542456;22;20011;-80
2022/08/09 11:35:56;;;;;;;2.97;0.70;;;;;;;45.46;16.97;102655.50;6514617;22;20058;-80
2022/08/09 11:38:33;;;;;;;2.67;0.47;;;;;;;45.00;17.75;102655.16;6541985;22;20423;-80
2022/08/09 11:41:27;;;;;;;1.20;0.43;;;;;;;46.00;16.89;102650.03;6542012;22;20034;-80
2022/08/09 11:43:59;;;;;;;3.15;0.80;;;;;;;45.09;17.34;102650.31;6541633;22;20004;-80
2022/08/09 11:46:51;;;;;;;1.05;0.50;;;;;;;45.33;17.71;102650.94;6542567;22;20355;-80
2022/08/09 11:49:57;;;;;;;3.13;0.70;;;;;;;45.97;17.44;102641.44;6515385;22;19997;-80